Time;durP1;ratioP1;P1;durP2;ratioP2;P2;SDS_P1;SDS_P2;PMS_P1;PMS_P2;Temp;Humidity;BMP_temperature;BMP_pressure;BME280_temperature;BME280_humidity;BME280_pressure;Samples;Min_cycle;Max_cycle;Signal;HPM_P1;HPM_P2
2024/01/03 00:02:19;;;;;;;12.20;2.40;;;;;;;-143.54;100.00;59916.91;5074095;28;20029;-79
2024/01/03 00:04:44;;;;;;;9.98;2.03;;;;;;;-143.54;100.00;59916.91;5078499;28;20538;-79
2024/01/03 00:07:10;;;;;;;9.40;2.08;;;;;;;-143.54;100.00;59916.91;5078679;28;20024;-79
2024/01/03 00:09:35;;;;;;;10.25;2.30;;;;;;;-143.54;100.00;59916.91;5073359;28;20020;-79
2024/01/03 00:12:02;;;;;;;12.32;2.88;;;;;;;-143.54;100.00;59916.91;5075711;28;20025;-79
2024/01/03 00:14:31;;;;;;;10.68;2.35;;;;;;;-143.54;100.00;59916.91;5071609;28;20112;-79
2024/01/03 00:17:14;;;;;;;8.45;2.33;;;;;;;-143.54;100.00;59916.91;5078540;28;20102;-79
2024/01/03 00:19:40;;;;;;;9.88;2.72;;;;;;;-143.54;100.00;59916.91;5080620;28;20052;-79
2024/01/03 00:22:11;;;;;;;14.98;2.92;;;;;;;-143.54;100.00;59916.91;5076987;28;20496;-79
2024/01/03 00:24:45;;;;;;;10.63;2.80;;;;;;;-143.54;100.00;59916.91;5077762;28;20469;-79
2024/01/03 00:27:10;;;;;;;13.68;3.13;;;;;;;-143.54;100.00;59916.91;5074138;28;20095;-79
2024/01/03 00:29:52;;;;;;;17.55;2.90;;;;;;;-143.54;100.00;59916.91;5079244;28;20464;-78
2024/01/03 00:32:19;;;;;;;11.98;2.92;;;;;;;-143.54;100.00;59916.91;5077467;28;20487;-79
2024/01/03 00:34:44;;;;;;;14.02;2.58;;;;;;;-143.54;100.00;59916.91;5073782;28;20157;-79
2024/01/03 00:37:24;;;;;;;17.52;3.20;;;;;;;-143.54;100.00;59916.91;5073666;28;20095;-79
2024/01/03 00:39:50;;;;;;;14.75;3.70;;;;;;;-143.54;100.00;59916.91;5069618;28;20547;-79
2024/01/03 00:42:17;;;;;;;16.98;4.10;;;;;;;-143.54;100.00;59916.91;5077311;28;20055;-79
2024/01/03 00:44:42;;;;;;;15.48;3.60;;;;;;;-143.54;100.00;59916.91;5078054;28;20484;-78
2024/01/03 00:47:08;;;;;;;19.15;3.53;;;;;;;-143.54;100.00;59916.91;5069647;28;20032;-79
2024/01/03 00:49:35;;;;;;;15.43;3.50;;;;;;;-143.54;100.00;59916.91;5079915;28;20028;-79
2024/01/03 00:52:01;;;;;;;26.20;4.28;;;;;;;-143.54;100.00;59916.91;5072858;28;20107;-79
2024/01/03 00:54:28;;;;;;;19.50;4.38;;;;;;;-143.54;100.00;59916.91;5081073;28;20028;-79
2024/01/03 00:56:54;;;;;;;19.02;4.10;;;;;;;-143.54;100.00;59916.91;5071206;28;20139;-79
2024/01/03 00:59:19;;;;;;;16.17;3.45;;;;;;;-143.54;100.00;59916.91;5079227;28;20107;-79
2024/01/03 01:01:45;;;;;;;22.45;4.55;;;;;;;-143.54;100.00;59916.91;5078213;28;20101;-79
2024/01/03 01:04:12;;;;;;;12.88;3.25;;;;;;;-143.54;100.00;59916.91;5079719;28;20384;-79
2024/01/03 01:06:39;;;;;;;15.80;3.53;;;;;;;-143.54;100.00;59916.91;5076514;28;20418;-79
2024/01/03 01:09:05;;;;;;;17.25;3.80;;;;;;;-143.54;100.00;59916.91;5064588;28;20492;-79
2024/01/03 01:11:30;;;;;;;19.58;4.07;;;;;;;-143.54;100.00;59916.91;5075036;28;20036;-79
2024/01/03 01:13:56;;;;;;;16.77;3.65;;;;;;;-143.54;100.00;59916.91;5076904;28;20025;-79
2024/01/03 01:16:21;;;;;;;21.38;4.88;;;;;;;-143.54;100.00;59916.91;5073766;28;20074;-79
2024/01/03 01:18:46;;;;;;;21.75;3.65;;;;;;;-143.54;100.00;59916.91;5076622;28;20357;-79
2024/01/03 01:21:12;;;;;;;22.15;4.50;;;;;;;-143.54;100.00;59916.91;5070756;28;20411;-79
2024/01/03 01:23:42;;;;;;;22.48;4.97;;;;;;;-143.54;100.00;59916.91;5078321;28;20491;-79
2024/01/03 01:26:07;;;;;;;19.88;4.03;;;;;;;-143.54;100.00;59916.91;5075030;28;20027;-79
2024/01/03 01:28:33;;;;;;;26.67;4.40;;;;;;;-143.54;100.00;59916.91;5074562;28;20408;-78
2024/01/03 01:30:58;;;;;;;19.50;4.18;;;;;;;-143.54;100.00;59916.91;5073942;28;20506;-79
2024/01/03 01:33:23;;;;;;;18.10;4.45;;;;;;;-143.54;100.00;59916.91;5074723;28;20016;-79
2024/01/03 01:35:48;;;;;;;23.45;4.53;;;;;;;-143.54;100.00;59916.91;5078839;28;20556;-79
2024/01/03 01:38:14;;;;;;;27.77;5.28;;;;;;;-143.54;100.00;59916.91;5075251;28;20032;-79
2024/01/03 01:40:39;;;;;;;24.33;4.57;;;;;;;-143.54;100.00;59916.91;5074060;28;20066;-79
2024/01/03 01:43:06;;;;;;;29.92;3.72;;;;;;;-143.54;100.00;59916.91;5072329;28;20024;-79
2024/01/03 01:45:32;;;;;;;21.90;5.30;;;;;;;-143.54;100.00;59916.91;5071613;28;20040;-79
2024/01/03 01:47:58;;;;;;;20.08;4.00;;;;;;;-143.54;100.00;59916.91;5068235;28;20510;-79
2024/01/03 01:50:23;;;;;;;22.48;4.63;;;;;;;-143.54;100.00;59916.91;5077025;28;20024;-79
2024/01/03 01:52:49;;;;;;;21.60;4.75;;;;;;;-143.54;100.00;59916.91;5070805;28;20040;-79
2024/01/03 01:55:15;;;;;;;19.38;3.90;;;;;;;-143.54;100.00;59916.91;5076620;28;20473;-79
2024/01/03 01:57:42;;;;;;;19.92;4.53;;;;;;;-143.54;100.00;59916.91;5075951;28;20099;-79
2024/01/03 02:00:08;;;;;;;18.00;3.75;;;;;;;-143.54;100.00;59916.91;5078050;28;20606;-79
2024/01/03 02:02:36;;;;;;;19.45;4.40;;;;;;;-143.54;100.00;59916.91;5071121;28;20036;-79
2024/01/03 02:05:02;;;;;;;18.23;3.88;;;;;;;-143.54;100.00;59916.91;5078409;28;20024;-79
2024/01/03 02:07:30;;;;;;;15.25;3.50;;;;;;;-143.54;100.00;59916.91;5071009;28;20036;-79
2024/01/03 02:09:55;;;;;;;19.13;3.65;;;;;;;-143.54;100.00;59916.91;5072966;28;20023;-79
2024/01/03 02:12:30;;;;;;;17.33;3.95;;;;;;;-143.54;100.00;59916.91;5075036;28;20108;-79
2024/01/03 02:14:57;;;;;;;15.48;3.40;;;;;;;-143.54;100.00;59916.91;5078785;28;20048;-78
2024/01/03 02:17:23;;;;;;;25.70;4.55;;;;;;;-143.54;100.00;59916.91;5070926;28;20020;-78
2024/01/03 02:19:49;;;;;;;19.52;4.80;;;;;;;-143.54;100.00;59916.91;5076515;28;20036;-79
2024/01/03 02:22:15;;;;;;;17.50;4.28;;;;;;;-143.54;100.00;59916.91;5069292;28;20016;-79
2024/01/03 02:24:40;;;;;;;25.35;4.22;;;;;;;-143.54;100.00;59916.91;5070616;28;20020;-79
2024/01/03 02:27:05;;;;;;;17.58;3.63;;;;;;;-143.54;100.00;59916.91;5071789;28;20044;-79
2024/01/03 02:29:32;;;;;;;20.15;3.92;;;;;;;-143.54;100.00;59916.91;5070602;28;20049;-79
2024/01/03 02:31:57;;;;;;;27.33;4.07;;;;;;;-143.54;100.00;59916.91;5072262;28;20519;-78
2024/01/03 02:34:22;;;;;;;25.50;4.47;;;;;;;-143.54;100.00;59916.91;5068688;28;20025;-79
2024/01/03 02:36:50;;;;;;;21.67;4.13;;;;;;;-143.54;100.00;59916.91;5071551;28;20046;-79
2024/01/03 02:39:15;;;;;;;24.98;4.05;;;;;;;-143.54;100.00;59916.91;5080083;28;20052;-79
2024/01/03 02:41:40;;;;;;;20.42;4.00;;;;;;;-143.54;100.00;59916.91;5071135;28;20044;-79
2024/01/03 02:44:06;;;;;;;15.00;3.53;;;;;;;-143.54;100.00;59916.91;5078355;28;20024;-79
2024/01/03 02:46:31;;;;;;;23.83;4.32;;;;;;;-143.54;100.00;59916.91;5072365;28;20025;-79
2024/01/03 02:48:56;;;;;;;13.73;4.30;;;;;;;-143.54;100.00;59916.91;5076309;28;20462;-79
2024/01/03 02:51:22;;;;;;;17.33;4.05;;;;;;;-143.54;100.00;59916.91;5073862;28;20021;-79
2024/01/03 02:53:48;;;;;;;11.93;3.60;;;;;;;-143.54;100.00;59916.91;5071166;28;20032;-79
2024/01/03 02:56:14;;;;;;;21.10;4.60;;;;;;;-143.54;100.00;59916.91;5074025;28;20028;-78
2024/01/03 02:58:39;;;;;;;25.02;3.88;;;;;;;-143.54;100.00;59916.91;5070189;28;20059;-79
2024/01/03 03:01:05;;;;;;;14.80;3.35;;;;;;;-143.54;100.00;59916.91;5072288;28;20032;-79
2024/01/03 03:03:30;;;;;;;22.05;4.47;;;;;;;-143.54;100.00;59916.91;5072739;28;20524;-79
2024/01/03 03:05:56;;;;;;;21.75;4.10;;;;;;;-143.54;100.00;59916.91;5070607;28;20413;-79
2024/01/03 03:08:23;;;;;;;19.38;4.60;;;;;;;-143.54;100.00;59916.91;5069884;28;20036;-79
2024/01/03 03:10:48;;;;;;;20.00;4.00;;;;;;;-143.54;100.00;59916.91;5078484;28;20060;-79
2024/01/03 03:13:13;;;;;;;21.75;4.88;;;;;;;-143.54;100.00;59916.91;5072246;28;20048;-79
2024/01/03 03:15:39;;;;;;;16.67;4.05;;;;;;;-143.54;100.00;59916.91;5079247;28;20043;-78
2024/01/03 03:18:06;;;;;;;22.52;3.95;;;;;;;-143.54;100.00;59916.91;5067294;28;20025;-79
2024/01/03 03:20:32;;;;;;;23.20;3.22;;;;;;;-143.54;100.00;59916.91;5080963;28;20032;-79
2024/01/03 03:22:57;;;;;;;17.92;3.90;;;;;;;-143.54;100.00;59916.91;5072742;28;20085;-79
2024/01/03 03:25:23;;;;;;;18.05;3.53;;;;;;;-143.54;100.00;59916.91;5078681;28;20031;-79
2024/01/03 03:27:48;;;;;;;24.33;4.15;;;;;;;-143.54;100.00;59916.91;5075236;28;20037;-79
2024/01/03 03:30:13;;;;;;;23.67;3.83;;;;;;;-143.54;100.00;59916.91;5079830;28;20025;-78
2024/01/03 03:32:39;;;;;;;18.83;4.05;;;;;;;-143.54;100.00;59916.91;5075300;28;20493;-79
2024/01/03 03:35:04;;;;;;;19.02;4.05;;;;;;;-143.54;100.00;59916.91;5078756;28;20032;-79
2024/01/03 03:37:30;;;;;;;18.70;4.43;;;;;;;-143.54;100.00;59916.91;5070981;28;20032;-79
2024/01/03 03:39:55;;;;;;;23.08;4.32;;;;;;;-143.54;100.00;59916.91;5075597;28;20047;-78
2024/01/03 03:42:22;;;;;;;22.30;4.10;;;;;;;-143.54;100.00;59916.91;5081765;28;20028;-79
2024/01/03 03:44:47;;;;;;;23.08;5.10;;;;;;;-143.54;100.00;59916.91;5082876;28;20024;-79
2024/01/03 03:47:12;;;;;;;25.55;5.70;;;;;;;-143.54;100.00;59916.91;5074724;28;20388;-79
2024/01/03 03:49:38;;;;;;;24.77;3.80;;;;;;;-143.54;100.00;59916.91;5080171;28;20032;-79
2024/01/03 03:52:03;;;;;;;18.00;4.05;;;;;;;-143.54;100.00;59916.91;5082599;28;20101;-79
2024/01/03 03:54:29;;;;;;;23.10;4.43;;;;;;;-143.54;100.00;59916.91;5074302;28;20541;-79
2024/01/03 03:56:54;;;;;;;27.20;4.75;;;;;;;-143.54;100.00;59916.91;5075190;28;20074;-79
2024/01/03 03:59:19;;;;;;;24.60;4.40;;;;;;;-143.54;100.00;59916.91;5082282;28;20024;-79
2024/01/03 04:01:49;;;;;;;23.55;4.20;;;;;;;-143.54;100.00;59916.91;5071069;28;20044;-79
2024/01/03 04:04:14;;;;;;;17.92;3.83;;;;;;;-143.54;100.00;59916.91;5082008;28;20026;-79
2024/01/03 04:06:43;;;;;;;17.80;4.53;;;;;;;-143.54;100.00;59916.91;5074749;28;20119;-79
2024/01/03 04:09:11;;;;;;;22.73;3.92;;;;;;;-143.54;100.00;59916.91;5076487;28;20115;-78
2024/01/03 04:11:43;;;;;;;21.73;3.47;;;;;;;-143.54;100.00;59916.91;5083838;28;20016;-78
2024/01/03 04:14:09;;;;;;;15.52;3.00;;;;;;;-143.54;100.00;59916.91;5079055;28;20476;-78
2024/01/03 04:16:35;;;;;;;13.80;4.25;;;;;;;-143.54;100.00;59916.91;5075649;28;20032;-78
2024/01/03 04:19:01;;;;;;;19.80;3.40;;;;;;;-143.54;100.00;59916.91;5075329;28;20106;-78
2024/01/03 04:21:30;;;;;;;11.32;2.75;;;;;;;-143.54;100.00;59916.91;5073209;28;20085;-78
2024/01/03 04:23:56;;;;;;;17.05;2.83;;;;;;;-143.54;100.00;59916.91;5076907;28;20016;-78
2024/01/03 04:26:22;;;;;;;10.90;2.92;;;;;;;-143.54;100.00;59916.91;5072153;28;20361;-78
2024/01/03 04:28:47;;;;;;;13.15;2.60;;;;;;;-143.54;100.00;59916.91;5074858;28;20051;-78
2024/01/03 04:31:13;;;;;;;11.38;2.65;;;;;;;-143.54;100.00;59916.91;5076804;28;20033;-78
2024/01/03 04:33:38;;;;;;;18.92;2.97;;;;;;;-143.54;100.00;59916.91;5075217;28;20062;-78
2024/01/03 04:36:04;;;;;;;17.08;2.70;;;;;;;-143.54;100.00;59916.91;5077636;28;20158;-78
2024/01/03 04:38:29;;;;;;;14.75;2.83;;;;;;;-143.54;100.00;59916.91;5073848;28;20465;-78
2024/01/03 04:40:54;;;;;;;16.23;2.47;;;;;;;-143.54;100.00;59916.91;5078210;28;20024;-78
2024/01/03 04:43:20;;;;;;;16.45;2.67;;;;;;;-143.54;100.00;59916.91;5075364;28;20487;-78
2024/01/03 04:45:47;;;;;;;13.00;2.50;;;;;;;-143.54;100.00;59916.91;5077395;28;20836;-78
2024/01/03 04:48:13;;;;;;;9.90;2.15;;;;;;;-143.54;100.00;59916.91;5075007;28;20051;-78
2024/01/03 04:50:38;;;;;;;13.32;2.75;;;;;;;-143.54;100.00;59916.91;5076197;28;20770;-78
2024/01/03 04:53:03;;;;;;;11.70;2.35;;;;;;;-143.54;100.00;59916.91;5079723;28;20118;-78
2024/01/03 04:55:29;;;;;;;12.32;2.30;;;;;;;-143.54;100.00;59916.91;5076167;28;20039;-78
2024/01/03 04:57:55;;;;;;;8.27;1.90;;;;;;;-143.54;100.00;59916.91;5074417;28;20032;-78
2024/01/03 05:00:20;;;;;;;10.63;2.13;;;;;;;-143.54;100.00;59916.91;5075459;28;20023;-78
2024/01/03 05:02:45;;;;;;;7.60;1.70;;;;;;;-143.54;100.00;59916.91;5078602;28;20461;-78
2024/01/03 05:05:11;;;;;;;10.45;1.90;;;;;;;-143.54;100.00;59916.91;5072992;28;20040;-78
2024/01/03 05:07:39;;;;;;;11.10;1.90;;;;;;;-143.54;100.00;59916.91;5074702;28;20340;-79
2024/01/03 05:10:08;;;;;;;9.63;2.10;;;;;;;-143.54;100.00;59916.91;5075958;28;20102;-78
2024/01/03 05:12:34;;;;;;;7.78;1.52;;;;;;;-143.54;100.00;59916.91;5077683;28;20024;-78
2024/01/03 05:14:59;;;;;;;8.57;1.85;;;;;;;-143.54;100.00;59916.91;5077193;28;20031;-78
2024/01/03 05:17:26;;;;;;;10.80;2.25;;;;;;;-143.54;100.00;59916.91;5074194;28;20024;-79
2024/01/03 05:19:51;;;;;;;5.50;1.55;;;;;;;-143.54;100.00;59916.91;5072018;28;20024;-78
2024/01/03 05:22:16;;;;;;;8.80;2.05;;;;;;;-143.54;100.00;59916.91;5076987;28;20039;-78
2024/01/03 05:24:42;;;;;;;14.85;2.03;;;;;;;-143.54;100.00;59916.91;5079604;28;20032;-78
2024/01/03 05:27:07;;;;;;;10.45;1.83;;;;;;;-143.54;100.00;59916.91;5074160;28;20476;-79
2024/01/03 05:29:33;;;;;;;6.55;1.80;;;;;;;-143.54;100.00;59916.91;5079771;28;20031;-78
2024/01/03 05:31:58;;;;;;;8.90;1.70;;;;;;;-143.54;100.00;59916.91;5075244;28;20436;-79
2024/01/03 05:34:24;;;;;;;9.07;2.10;;;;;;;-143.54;100.00;59916.91;5071507;28;20059;-79
2024/01/03 05:36:49;;;;;;;7.03;2.15;;;;;;;-143.54;100.00;59916.91;5074912;28;20032;-78
2024/01/03 05:39:14;;;;;;;9.02;2.00;;;;;;;-143.54;100.00;59916.91;5071920;28;20028;-79
2024/01/03 05:41:40;;;;;;;11.98;2.30;;;;;;;-143.54;100.00;59916.91;5072908;28;20486;-79
2024/01/03 05:44:05;;;;;;;9.43;1.98;;;;;;;-143.54;100.00;59916.91;5076598;28;20033;-79
2024/01/03 05:46:30;;;;;;;10.13;2.10;;;;;;;-143.54;100.00;59916.91;5073707;28;20025;-79
2024/01/03 05:48:56;;;;;;;11.77;2.10;;;;;;;-143.54;100.00;59916.91;5076191;28;20477;-79
2024/01/03 05:51:22;;;;;;;8.80;2.10;;;;;;;-143.54;100.00;59916.91;5071160;28;20027;-79
2024/01/03 05:53:48;;;;;;;14.77;2.47;;;;;;;-143.54;100.00;59916.91;5078127;28;20460;-79
2024/01/03 05:56:14;;;;;;;9.60;2.67;;;;;;;-143.54;100.00;59916.91;5075379;28;20473;-79
2024/01/03 05:58:40;;;;;;;20.83;2.92;;;;;;;-143.54;100.00;59916.91;5072830;28;20028;-79
2024/01/03 06:01:06;;;;;;;13.70;2.75;;;;;;;-143.54;100.00;59916.91;5074177;28;20035;-79
2024/01/03 06:03:32;;;;;;;12.15;2.42;;;;;;;-143.54;100.00;59916.91;5071745;28;20472;-79
2024/01/03 06:05:57;;;;;;;13.65;2.70;;;;;;;-143.54;100.00;59916.91;5075152;28;20070;-79
2024/01/03 06:08:22;;;;;;;13.02;2.78;;;;;;;-143.54;100.00;59916.91;5075683;28;20028;-79
2024/01/03 06:10:48;;;;;;;14.05;2.33;;;;;;;-143.54;100.00;59916.91;5074304;28;20032;-79
2024/01/03 06:13:15;;;;;;;9.43;2.05;;;;;;;-143.54;100.00;59916.91;5072112;28;20524;-79
2024/01/03 06:15:40;;;;;;;12.32;2.22;;;;;;;-143.54;100.00;59916.91;5075761;28;20419;-79
2024/01/03 06:18:06;;;;;;;12.10;2.55;;;;;;;-143.54;100.00;59916.91;5071755;28;20031;-80
2024/01/03 06:20:31;;;;;;;20.63;3.20;;;;;;;-143.54;100.00;59916.91;5077594;28;20123;-79
2024/01/03 06:22:56;;;;;;;10.27;2.38;;;;;;;-143.54;100.00;59916.91;5075442;28;20058;-79
2024/01/03 06:25:22;;;;;;;13.80;2.63;;;;;;;-143.54;100.00;59916.91;5073462;28;20025;-79
2024/01/03 06:27:47;;;;;;;9.45;2.20;;;;;;;-143.54;100.00;59916.91;5075730;28;20562;-79
2024/01/03 06:30:13;;;;;;;10.82;2.10;;;;;;;-143.54;100.00;59916.91;5076518;28;20033;-80
2024/01/03 06:32:38;;;;;;;11.27;2.55;;;;;;;-143.54;100.00;59916.91;5082554;28;20036;-80
2024/01/03 06:35:04;;;;;;;10.88;2.00;;;;;;;-143.54;100.00;59916.91;5082820;28;20490;-79
2024/01/03 06:37:29;;;;;;;10.13;2.05;;;;;;;-143.54;100.00;59916.91;5070300;28;20025;-80
2024/01/03 06:39:54;;;;;;;16.02;2.70;;;;;;;-143.54;100.00;59916.91;5074435;28;20017;-79
2024/01/03 06:42:20;;;;;;;13.13;2.30;;;;;;;-143.54;100.00;59916.91;5072851;28;20020;-79
2024/01/03 06:44:45;;;;;;;10.52;2.25;;;;;;;-143.54;100.00;59916.91;5082130;28;20035;-80
2024/01/03 06:47:10;;;;;;;7.63;1.63;;;;;;;-143.54;100.00;59916.91;5075406;28;20029;-80
2024/01/03 06:49:36;;;;;;;11.25;2.45;;;;;;;-143.54;100.00;59916.91;5085585;28;20040;-79
2024/01/03 06:52:01;;;;;;;4.15;1.40;;;;;;;-143.54;100.00;59916.91;5081889;28;20479;-79
2024/01/03 06:54:26;;;;;;;6.72;1.60;;;;;;;-143.54;100.00;59916.91;5076535;28;20048;-79
2024/01/03 06:56:52;;;;;;;4.32;1.40;;;;;;;-143.54;100.00;59916.91;5077013;28;20426;-79
2024/01/03 06:59:17;;;;;;;7.43;1.50;;;;;;;-143.54;100.00;59916.91;5081994;28;20070;-79
2024/01/03 07:01:42;;;;;;;8.18;1.80;;;;;;;-143.54;100.00;59916.91;5075700;28;20047;-79
2024/01/03 07:04:08;;;;;;;7.03;1.67;;;;;;;-143.54;100.00;59916.91;5086124;28;20024;-79
2024/01/03 07:06:33;;;;;;;4.60;1.50;;;;;;;-143.54;100.00;59916.91;5080244;28;20032;-79
2024/01/03 07:08:58;;;;;;;6.78;1.48;;;;;;;-143.54;100.00;59916.91;5083151;28;20028;-79
2024/01/03 07:11:23;;;;;;;3.05;1.20;;;;;;;-143.54;100.00;59916.91;5072591;28;20048;-79
2024/01/03 07:13:49;;;;;;;3.63;1.00;;;;;;;-143.54;100.00;59916.91;5075987;28;20476;-80
2024/01/03 07:16:15;;;;;;;5.95;0.82;;;;;;;-143.54;100.00;59916.91;5075105;28;20067;-82
2024/01/03 07:18:41;;;;;;;2.42;0.80;;;;;;;-143.54;100.00;59916.91;5083398;28;20032;-80
2024/01/03 07:21:07;;;;;;;1.00;0.88;;;;;;;-143.54;100.00;59916.91;5079715;28;20380;-80
2024/01/03 07:23:33;;;;;;;3.22;0.80;;;;;;;-143.54;100.00;59916.91;5074826;28;20056;-80
2024/01/03 07:25:58;;;;;;;4.60;1.08;;;;;;;-143.54;100.00;59916.91;5084531;28;20173;-80
2024/01/03 07:28:23;;;;;;;2.85;1.17;;;;;;;-143.54;100.00;59916.91;5075058;28;20459;-81
2024/01/03 07:30:49;;;;;;;4.80;1.35;;;;;;;-143.54;100.00;59916.91;5078514;28;20033;-80
2024/01/03 07:33:14;;;;;;;5.82;1.92;;;;;;;-143.54;100.00;59916.91;5075361;28;20032;-79
2024/01/03 07:35:39;;;;;;;4.97;1.80;;;;;;;-143.54;100.00;59916.91;5082533;28;20059;-79
2024/01/03 07:38:06;;;;;;;6.60;2.00;;;;;;;-143.54;100.00;59916.91;5079079;28;20060;-79
2024/01/03 07:40:31;;;;;;;5.65;2.03;;;;;;;-143.54;100.00;59916.91;5073720;28;20368;-79
2024/01/03 07:42:56;;;;;;;5.25;2.10;;;;;;;-143.54;100.00;59916.91;5079707;28;20035;-79
2024/01/03 07:45:22;;;;;;;5.57;1.92;;;;;;;-143.54;100.00;59916.91;5074224;28;20656;-78
2024/01/03 07:47:48;;;;;;;5.13;2.00;;;;;;;-143.54;100.00;59916.91;5078313;28;20032;-79
2024/01/03 07:50:13;;;;;;;4.93;2.42;;;;;;;-143.54;100.00;59916.91;5074107;28;20016;-78
2024/01/03 07:52:39;;;;;;;7.30;2.33;;;;;;;-143.54;100.00;59916.91;5078347;28;20043;-78
2024/01/03 07:55:04;;;;;;;8.52;2.67;;;;;;;-143.54;100.00;59916.91;5075782;28;20483;-78
2024/01/03 07:57:29;;;;;;;6.60;3.13;;;;;;;-143.54;100.00;59916.91;5073119;28;20101;-78
2024/01/03 07:59:55;;;;;;;8.43;2.75;;;;;;;-143.54;100.00;59916.91;5074026;28;20072;-78
2024/01/03 08:02:20;;;;;;;7.53;3.05;;;;;;;-143.54;100.00;59916.91;5083934;28;20446;-78
2024/01/03 08:04:45;;;;;;;10.20;2.97;;;;;;;-143.54;100.00;59916.91;5081818;28;20479;-78
2024/01/03 08:07:11;;;;;;;9.20;2.60;;;;;;;-143.54;100.00;59916.91;5082587;28;20036;-78
2024/01/03 08:09:37;;;;;;;10.85;2.58;;;;;;;-143.54;100.00;59916.91;5083995;28;20030;-78
2024/01/03 08:12:08;;;;;;;7.63;2.13;;;;;;;-143.54;100.00;59916.91;5081607;28;20024;-78
2024/01/03 08:14:34;;;;;;;8.10;2.20;;;;;;;-143.54;100.00;59916.91;5077890;28;20459;-78
2024/01/03 08:17:00;;;;;;;8.55;1.63;;;;;;;-143.54;100.00;59916.91;5077651;28;20036;-78
2024/01/03 08:19:26;;;;;;;14.25;1.80;;;;;;;-143.54;100.00;59916.91;5088422;28;20016;-78
2024/01/03 08:21:51;;;;;;;8.00;2.25;;;;;;;-143.54;100.00;59916.91;5078260;28;20529;-78
2024/01/03 08:24:16;;;;;;;10.50;2.00;;;;;;;-143.54;100.00;59916.91;5083434;28;20052;-78
2024/01/03 08:26:42;;;;;;;17.27;2.60;;;;;;;-143.54;100.00;59916.91;5080365;28;20115;-78
2024/01/03 08:29:11;;;;;;;10.50;1.98;;;;;;;-143.54;100.00;59916.91;5078407;28;20068;-78
2024/01/03 08:31:36;;;;;;;7.93;2.05;;;;;;;-143.54;100.00;59916.91;5081920;28;20027;-78
2024/01/03 08:34:01;;;;;;;17.17;2.42;;;;;;;-143.54;100.00;59916.91;5081844;28;20029;-78
2024/01/03 08:36:39;;;;;;;13.82;1.70;;;;;;;-143.54;100.00;59916.91;5081527;28;20525;-78
2024/01/03 08:39:04;;;;;;;13.50;2.33;;;;;;;-143.54;100.00;59916.91;5086169;28;20469;-78
2024/01/03 08:41:29;;;;;;;14.13;2.40;;;;;;;-143.54;100.00;59916.91;5074029;28;20039;-78
2024/01/03 08:43:55;;;;;;;18.80;2.42;;;;;;;-143.54;100.00;59916.91;5078578;28;20021;-78
2024/01/03 08:46:20;;;;;;;20.40;2.40;;;;;;;-143.54;100.00;59916.91;5088084;28;20044;-78
2024/01/03 08:48:45;;;;;;;16.35;2.42;;;;;;;-143.54;100.00;59916.91;5082920;28;20376;-78
2024/01/03 08:51:12;;;;;;;24.67;3.58;;;;;;;-143.54;100.00;59916.91;5082829;28;20062;-77
2024/01/03 08:53:39;;;;;;;19.95;3.10;;;;;;;-143.54;100.00;59916.91;5084223;28;20426;-78
2024/01/03 08:56:12;;;;;;;15.95;3.03;;;;;;;-143.54;100.00;59916.91;5078845;28;20028;-78
2024/01/03 08:58:37;;;;;;;17.63;3.77;;;;;;;-143.54;100.00;59916.91;5084579;28;20854;-78
2024/01/03 09:01:02;;;;;;;26.45;3.35;;;;;;;-143.54;100.00;59916.91;5083765;28;20032;-78
2024/01/03 09:03:27;;;;;;;18.50;3.33;;;;;;;-143.54;100.00;59916.91;5080980;28;20028;-78
2024/01/03 09:05:53;;;;;;;22.77;3.40;;;;;;;-143.54;100.00;59916.91;5084847;28;20428;-78
2024/01/03 09:08:18;;;;;;;26.48;3.58;;;;;;;-143.54;100.00;59916.91;5077219;28;20107;-78
2024/01/03 09:10:43;;;;;;;22.77;3.88;;;;;;;-143.54;100.00;59916.91;5084433;28;20066;-78
2024/01/03 09:13:09;;;;;;;19.02;3.20;;;;;;;-143.54;100.00;59916.91;5081050;28;20106;-77
2024/01/03 09:15:34;;;;;;;19.45;3.63;;;;;;;-143.54;100.00;59916.91;5082751;28;20028;-78
2024/01/03 09:17:59;;;;;;;21.95;3.55;;;;;;;-143.54;100.00;59916.91;5078618;28;20059;-78
2024/01/03 09:20:24;;;;;;;22.73;3.70;;;;;;;-143.54;100.00;59916.91;5076048;28;20020;-78
2024/01/03 09:22:53;;;;;;;23.13;3.97;;;;;;;-143.54;100.00;59916.91;5083454;28;20475;-77
2024/01/03 09:25:18;;;;;;;21.88;3.65;;;;;;;-143.54;100.00;59916.91;5082509;28;20482;-78
2024/01/03 09:27:44;;;;;;;28.85;5.30;;;;;;;-143.54;100.00;59916.91;5079638;28;20068;-78
2024/01/03 09:30:09;;;;;;;20.20;3.05;;;;;;;-143.54;100.00;59916.91;5076357;28;20028;-78
2024/01/03 09:32:35;;;;;;;25.17;3.50;;;;;;;-143.54;100.00;59916.91;5079818;28;20016;-78
2024/01/03 09:35:00;;;;;;;19.15;2.97;;;;;;;-143.54;100.00;59916.91;5083516;28;20107;-78
2024/01/03 09:37:29;;;;;;;20.38;4.18;;;;;;;-143.54;100.00;59916.91;5079825;28;20089;-78
2024/01/03 09:39:54;;;;;;;18.33;3.70;;;;;;;-143.54;100.00;59916.91;5076004;28;20051;-78
2024/01/03 09:42:19;;;;;;;25.00;3.38;;;;;;;-143.54;100.00;59916.91;5075350;28;20067;-78
2024/01/03 09:44:45;;;;;;;17.63;3.20;;;;;;;-143.54;100.00;59916.91;5084958;28;20479;-77
2024/01/03 09:47:12;;;;;;;25.25;4.07;;;;;;;-143.54;100.00;59916.91;5084414;28;20033;-77
2024/01/03 09:49:37;;;;;;;27.70;4.22;;;;;;;-143.54;100.00;59916.91;5081215;28;20024;-77
2024/01/03 09:52:04;;;;;;;22.85;4.07;;;;;;;-143.54;100.00;59916.91;5078350;28;20085;-78
2024/01/03 09:54:31;;;;;;;22.42;3.55;;;;;;;-143.54;100.00;59916.91;5077412;28;20039;-78
2024/01/03 09:56:56;;;;;;;19.95;3.70;;;;;;;-143.54;100.00;59916.91;5084378;28;20056;-76
2024/01/03 09:59:22;;;;;;;23.45;4.32;;;;;;;-143.54;100.00;59916.91;5085031;28;20052;-78
2024/01/03 10:01:58;;;;;;;23.30;4.10;;;;;;;-143.54;100.00;59916.91;5080686;28;20447;-77
2024/01/03 10:04:24;;;;;;;27.10;3.90;;;;;;;-143.54;100.00;59916.91;5078086;28;20027;-77
2024/01/03 10:06:52;;;;;;;24.40;4.95;;;;;;;-143.54;100.00;59916.91;5077425;28;20029;-77
2024/01/03 10:09:17;;;;;;;28.92;4.78;;;;;;;-143.54;100.00;59916.91;5084564;28;20031;-78
2024/01/03 10:11:45;;;;;;;17.45;3.50;;;;;;;-143.54;100.00;59916.91;5074900;28;20518;-77
2024/01/03 10:14:17;;;;;;;23.88;4.38;;;;;;;-143.54;100.00;59916.91;5075342;28;20426;-77
2024/01/03 10:16:44;;;;;;;32.22;4.80;;;;;;;-143.54;100.00;59916.91;5075905;28;20032;-77
2024/01/03 10:19:13;;;;;;;27.67;4.80;;;;;;;-143.54;100.00;59916.91;5076472;28;20037;-77
2024/01/03 10:21:47;;;;;;;33.33;5.35;;;;;;;-143.54;100.00;59916.91;5075138;28;20044;-77
2024/01/03 10:24:13;;;;;;;22.38;4.72;;;;;;;-143.54;100.00;59916.91;5067077;28;20027;-78
2024/01/03 10:26:38;;;;;;;29.30;4.85;;;;;;;-143.54;100.00;59916.91;5075087;28;20384;-78
2024/01/03 10:29:11;;;;;;;27.50;4.43;;;;;;;-143.54;100.00;59916.91;5073271;28;20082;-77
2024/01/03 10:31:36;;;;;;;20.03;4.70;;;;;;;-143.54;100.00;59916.91;5081110;28;20039;-78
2024/01/03 10:34:04;;;;;;;21.73;4.03;;;;;;;-143.54;100.00;59916.91;5079607;28;20028;-77
2024/01/03 10:36:32;;;;;;;22.90;4.38;;;;;;;-143.54;100.00;59916.91;5078826;28;20032;-77
2024/01/03 10:38:59;;;;;;;19.58;4.50;;;;;;;-143.54;100.00;59916.91;5074519;28;20024;-77
2024/01/03 10:41:25;;;;;;;28.02;5.07;;;;;;;-143.54;100.00;59916.91;5073502;28;20026;-77
2024/01/03 10:43:51;;;;;;;25.73;5.78;;;;;;;-143.54;100.00;59916.91;5073274;28;20112;-77
2024/01/03 10:46:18;;;;;;;21.02;4.65;;;;;;;-143.54;100.00;59916.91;5080533;28;20054;-77
2024/01/03 10:48:44;;;;;;;22.67;4.88;;;;;;;-143.54;100.00;59916.91;5077905;28;20377;-77
2024/01/03 10:51:12;;;;;;;17.85;3.60;;;;;;;-143.54;100.00;59916.91;5064666;28;20036;-77
2024/01/03 10:53:42;;;;;;;18.40;3.92;;;;;;;-143.54;100.00;59916.91;5083907;28;20036;-77
2024/01/03 10:56:09;;;;;;;21.52;4.15;;;;;;;-143.54;100.00;59916.91;5075693;28;20028;-77
2024/01/03 10:58:39;;;;;;;23.33;4.13;;;;;;;-143.54;100.00;59916.91;5079543;28;20029;-77
2024/01/03 11:01:23;;;;;;;20.27;3.95;;;;;;;-143.54;100.00;59916.91;5073605;28;20021;-77